createdAt,value
2017-08-04T00:01:53.942Z,59.20
2017-08-04T00:04:22.140Z,59.40
2017-08-04T00:06:49.585Z,59.30
2017-08-04T00:09:16.984Z,59.30
2017-08-04T00:11:44.436Z,59.60
2017-08-04T00:14:11.867Z,59.60
2017-08-04T00:16:39.280Z,59.70
2017-08-04T00:19:06.704Z,59.90
2017-08-04T00:21:34.184Z,60.30
2017-08-04T00:24:01.601Z,60.60
2017-08-04T00:26:29.025Z,61.00
2017-08-04T00:28:57.251Z,61.80
2017-08-04T00:31:24.660Z,61.60
2017-08-04T00:33:52.076Z,62.00
2017-08-04T00:36:19.500Z,62.20
2017-08-04T00:38:46.924Z,62.20
2017-08-04T00:41:15.242Z,61.90
2017-08-04T00:43:42.670Z,61.70
2017-08-04T00:46:10.080Z,61.70
2017-08-04T00:48:37.512Z,61.90
2017-08-04T00:51:04.942Z,62.10
2017-08-04T00:53:32.381Z,61.70
2017-08-04T00:56:00.573Z,61.40
2017-08-04T00:58:27.989Z,61.40
2017-08-04T01:00:55.404Z,62.00
2017-08-04T01:03:22.828Z,62.20
2017-08-04T01:05:50.244Z,62.00
2017-08-04T01:08:17.666Z,61.90
2017-08-04T01:10:45.080Z,62.20
2017-08-04T01:13:13.271Z,61.40
2017-08-04T01:15:40.714Z,61.30
2017-08-04T01:18:08.124Z,61.10
2017-08-04T01:20:35.545Z,61.10
2017-08-04T01:23:02.972Z,61.20
2017-08-04T01:25:30.385Z,61.30
2017-08-04T01:27:57.825Z,61.80
2017-08-04T01:30:25.290Z,61.40
2017-08-04T01:32:52.736Z,61.60
2017-08-04T01:35:20.154Z,61.40
2017-08-04T01:37:48.336Z,61.20
2017-08-04T01:40:15.825Z,61.20
2017-08-04T01:42:43.244Z,60.90
2017-08-04T01:45:11.449Z,61.50
2017-08-04T01:47:38.860Z,61.40
2017-08-04T01:50:07.048Z,61.80
2017-08-04T01:52:34.481Z,61.70
2017-08-04T01:55:01.920Z,62.10
2017-08-04T01:57:29.344Z,62.10
2017-08-04T01:59:56.765Z,62.40
2017-08-04T02:02:24.949Z,62.70
2017-08-04T02:04:53.130Z,62.10
2017-08-04T02:07:20.557Z,62.10
2017-08-04T02:09:48.739Z,62.70
2017-08-04T02:12:16.936Z,61.50
2017-08-04T02:14:44.352Z,61.40
2017-08-04T02:17:11.858Z,61.30
2017-08-04T02:19:39.267Z,62.40
2017-08-04T02:22:06.696Z,61.20
2017-08-04T02:24:34.113Z,60.90
2017-08-04T02:27:01.533Z,60.80
2017-08-04T02:29:29.722Z,62.50
2017-08-04T02:31:57.904Z,62.00
2017-08-04T02:34:25.313Z,62.00
2017-08-04T02:36:52.761Z,62.30
2017-08-04T02:39:20.173Z,62.80
2017-08-04T02:41:47.598Z,62.50
2017-08-04T02:44:15.022Z,62.60
2017-08-04T02:46:42.463Z,62.80
2017-08-04T02:49:10.681Z,62.80
2017-08-04T02:51:38.089Z,62.70
2017-08-04T02:54:05.520Z,62.90
2017-08-04T02:56:32.932Z,63.00
2017-08-04T02:59:00.368Z,63.10
2017-08-04T03:01:27.791Z,62.70
2017-08-04T03:03:55.214Z,62.70
2017-08-04T03:06:22.632Z,62.60
2017-08-04T03:08:50.057Z,62.70
2017-08-04T03:11:18.240Z,63.30
2017-08-04T03:13:46.428Z,62.70
2017-08-04T03:16:13.841Z,62.60
2017-08-04T03:18:41.269Z,62.60
2017-08-04T03:21:08.672Z,63.20
2017-08-04T03:23:36.888Z,63.40
2017-08-04T03:26:04.365Z,63.40
2017-08-04T03:28:31.789Z,63.60
2017-08-04T03:30:59.362Z,63.60
2017-08-04T03:33:26.775Z,63.70
2017-08-04T03:35:55.142Z,64.40
2017-08-04T03:38:22.556Z,64.30
2017-08-04T03:40:49.984Z,64.40
2017-08-04T03:43:17.404Z,64.80
2017-08-04T03:45:44.830Z,64.50
2017-08-04T03:48:12.256Z,64.60
2017-08-04T03:50:39.675Z,64.50
2017-08-04T03:53:07.082Z,64.50
2017-08-04T03:55:34.509Z,64.20
2017-08-04T03:58:02.683Z,64.60
2017-08-04T04:00:30.114Z,64.60
2017-08-04T04:02:57.523Z,64.10
2017-08-04T04:05:24.977Z,64.20
2017-08-04T04:07:52.393Z,64.50
2017-08-04T04:10:20.581Z,64.70
2017-08-04T04:12:48.001Z,64.70
2017-08-04T04:15:15.432Z,64.50
2017-08-04T04:17:42.857Z,64.60
2017-08-04T04:20:10.291Z,64.90
2017-08-04T04:22:38.464Z,64.70
2017-08-04T04:25:06.669Z,65.10
2017-08-04T04:27:34.108Z,65.00
2017-08-04T04:30:01.529Z,65.10
2017-08-04T04:32:28.965Z,65.10
2017-08-04T04:34:56.379Z,65.10
2017-08-04T04:37:23.812Z,64.70
2017-08-04T04:39:52.024Z,65.00
2017-08-04T04:42:19.445Z,64.90
2017-08-04T04:44:47.621Z,64.70
2017-08-04T04:47:15.831Z,64.80
2017-08-04T04:49:43.260Z,64.70
2017-08-04T04:52:10.690Z,64.80
2017-08-04T04:54:38.198Z,64.90
2017-08-04T04:57:05.646Z,64.70
2017-08-04T04:59:33.064Z,64.80
2017-08-04T05:02:01.265Z,65.90
2017-08-04T05:04:28.692Z,65.00
2017-08-04T05:06:56.880Z,63.60
2017-08-04T05:09:25.117Z,63.50
2017-08-04T05:11:52.544Z,63.50
2017-08-04T05:14:19.967Z,63.00
2017-08-04T05:16:48.158Z,62.30
2017-08-04T05:19:15.573Z,62.30
2017-08-04T05:21:42.997Z,62.70
2017-08-04T05:24:10.431Z,61.60
2017-08-04T05:26:37.860Z,61.90
2017-08-04T05:29:06.043Z,61.70
2017-08-04T05:31:33.468Z,61.70
2017-08-04T05:34:00.883Z,61.60
2017-08-04T05:36:28.321Z,61.70
2017-08-04T05:38:55.746Z,62.00
2017-08-04T05:41:23.944Z,63.60
2017-08-04T05:43:51.522Z,62.80
2017-08-04T05:46:18.936Z,62.00
2017-08-04T05:48:47.130Z,62.90
2017-08-04T05:51:14.546Z,62.80
2017-08-04T05:53:41.996Z,62.60
2017-08-04T05:56:09.422Z,62.80
2017-08-04T05:58:36.842Z,62.80
2017-08-04T06:01:05.021Z,62.80
2017-08-04T06:03:33.210Z,62.90
2017-08-04T06:06:00.628Z,62.90
2017-08-04T06:08:28.057Z,63.30
2017-08-04T06:10:55.489Z,63.20
2017-08-04T06:13:22.934Z,63.10
2017-08-04T06:15:50.341Z,63.10
2017-08-04T06:18:17.764Z,62.80
2017-08-04T06:20:45.205Z,63.40
2017-08-04T06:23:12.604Z,62.20
2017-08-04T06:25:40.028Z,62.30
2017-08-04T06:28:07.463Z,62.40
2017-08-04T06:30:34.927Z,63.00
2017-08-04T06:33:03.105Z,63.00
2017-08-04T06:35:30.522Z,63.00
2017-08-04T06:37:58.708Z,62.10
2017-08-04T06:40:26.939Z,62.30
2017-08-04T06:42:54.381Z,62.30
2017-08-04T06:45:21.805Z,62.10
2017-08-04T06:47:49.295Z,61.70
2017-08-04T06:50:28.741Z,61.70
2017-08-04T06:53:07.993Z,61.10
2017-08-04T06:55:42.074Z,60.60
2017-08-04T06:58:09.508Z,59.90
2017-08-04T07:00:36.928Z,59.90
2017-08-04T07:03:05.106Z,59.70
2017-08-04T07:05:33.297Z,60.00
2017-08-04T07:08:00.713Z,60.00
2017-08-04T07:10:28.140Z,60.00
2017-08-04T07:12:55.572Z,60.10
2017-08-04T07:15:22.985Z,60.20
2017-08-04T07:17:50.413Z,59.80
2017-08-04T07:20:17.850Z,60.00
2017-08-04T07:22:45.264Z,60.30
2017-08-04T07:25:13.482Z,59.60
2017-08-04T07:27:40.900Z,59.60
2017-08-04T07:30:08.329Z,59.90
2017-08-04T07:32:35.748Z,60.10
2017-08-04T07:35:03.170Z,60.30
2017-08-04T07:37:31.362Z,59.70
2017-08-04T07:39:58.814Z,59.70
2017-08-04T07:42:26.981Z,59.60
2017-08-04T07:44:55.165Z,59.40
2017-08-04T07:47:22.580Z,59.40
2017-08-04T07:49:50.005Z,59.50
2017-08-04T07:52:17.444Z,59.80
2017-08-04T07:54:44.878Z,59.40
2017-08-04T07:57:13.073Z,59.80
2017-08-04T07:59:40.480Z,59.80
2017-08-04T08:02:07.913Z,59.60
2017-08-04T08:04:35.450Z,59.70
2017-08-04T08:07:02.903Z,59.40
2017-08-04T08:09:30.330Z,59.30
2017-08-04T08:11:57.780Z,58.80
2017-08-04T08:14:25.202Z,58.80
2017-08-04T08:16:52.605Z,59.10
2017-08-04T08:19:20.017Z,58.90
2017-08-04T08:21:47.440Z,59.00
2017-08-04T08:24:14.880Z,59.30
2017-08-04T08:26:42.294Z,58.40
2017-08-04T08:29:09.737Z,58.00
2017-08-04T08:31:37.146Z,57.80
2017-08-04T08:34:04.572Z,58.00
2017-08-04T08:36:32.793Z,58.00
2017-08-04T08:39:00.218Z,57.90
2017-08-04T08:41:27.716Z,57.90
2017-08-04T08:43:55.131Z,57.70
2017-08-04T08:46:22.561Z,57.90
2017-08-04T08:48:49.993Z,57.90
2017-08-04T08:51:17.421Z,57.70
2017-08-04T08:53:44.833Z,57.50
2017-08-04T08:56:12.269Z,57.30
2017-08-04T08:58:39.745Z,56.90
2017-08-04T09:01:07.158Z,56.20
2017-08-04T09:03:34.583Z,56.00
2017-08-04T09:06:02.771Z,56.00
2017-08-04T09:08:31.005Z,56.40
2017-08-04T09:10:58.427Z,56.30
2017-08-04T09:13:25.845Z,56.00
2017-08-04T09:15:54.168Z,56.50
2017-08-04T09:18:21.572Z,56.50
2017-08-04T09:20:49.772Z,55.80
2017-08-04T09:23:17.279Z,55.80
2017-08-04T09:25:44.692Z,55.50
2017-08-04T09:28:12.125Z,55.40
2017-08-04T09:30:40.307Z,55.50
2017-08-04T09:33:07.732Z,55.40
2017-08-04T09:35:35.161Z,55.60
2017-08-04T09:38:02.598Z,55.70
2017-08-04T09:40:30.020Z,55.20
2017-08-04T09:42:58.212Z,55.30
2017-08-04T09:45:26.392Z,55.00
2017-08-04T09:47:53.806Z,55.00
2017-08-04T09:50:21.240Z,54.60
2017-08-04T09:52:48.681Z,54.80
2017-08-04T09:55:16.101Z,54.60
2017-08-04T09:57:44.289Z,53.90
2017-08-04T10:00:12.482Z,54.30
2017-08-04T10:02:39.923Z,54.20
2017-08-04T10:05:07.360Z,53.60
2017-08-04T10:07:35.545Z,53.00
2017-08-04T10:10:02.989Z,53.00
2017-08-04T10:12:31.187Z,53.10
2017-08-04T10:14:59.344Z,53.10
2017-08-04T10:17:26.795Z,53.10
2017-08-04T10:19:54.240Z,52.50
2017-08-04T10:22:21.670Z,52.00
2017-08-04T10:24:49.086Z,51.50
2017-08-04T10:27:16.516Z,51.40
2017-08-04T10:29:44.937Z,51.80
2017-08-04T10:32:12.349Z,51.20
2017-08-04T10:34:40.537Z,52.20
2017-08-04T10:37:07.964Z,52.10
2017-08-04T10:39:36.187Z,51.70
2017-08-04T10:42:03.614Z,52.20
2017-08-04T10:44:31.043Z,52.30
2017-08-04T10:46:58.507Z,52.00
2017-08-04T10:49:26.749Z,52.40
2017-08-04T10:51:54.148Z,52.50
2017-08-04T10:54:21.600Z,52.30
2017-08-04T10:56:49.007Z,52.30
2017-08-04T10:59:16.434Z,52.20
2017-08-04T11:01:43.857Z,51.70
2017-08-04T11:04:11.272Z,51.30
2017-08-04T11:06:38.693Z,50.60
2017-08-04T11:09:06.872Z,50.40
2017-08-04T11:11:34.300Z,50.40
2017-08-04T11:14:02.560Z,50.70
2017-08-04T11:16:29.984Z,50.60
2017-08-04T11:18:57.401Z,50.70
2017-08-04T11:21:24.849Z,50.50
2017-08-04T11:23:53.060Z,49.80
2017-08-04T11:26:20.484Z,49.70
2017-08-04T11:28:48.677Z,50.20
2017-08-04T11:31:16.109Z,50.10
2017-08-04T11:33:44.292Z,50.80
2017-08-04T11:36:11.748Z,50.80
2017-08-04T11:38:39.927Z,50.80
2017-08-04T11:41:07.348Z,50.80
2017-08-04T11:43:34.830Z,51.10
2017-08-04T11:46:03.039Z,51.10
2017-08-04T11:48:30.468Z,51.10
2017-08-04T11:50:57.911Z,50.80
2017-08-04T11:53:25.342Z,50.30
2017-08-04T11:55:52.806Z,49.30
2017-08-04T11:58:20.241Z,49.20
2017-08-04T12:00:47.663Z,49.70
2017-08-04T12:03:15.149Z,50.10
2017-08-04T12:05:42.567Z,50.20
2017-08-04T12:08:10.053Z,50.10
2017-08-04T12:10:37.545Z,50.10
2017-08-04T12:13:04.950Z,50.30
2017-08-04T12:15:32.369Z,49.80
2017-08-04T12:17:59.791Z,49.40
2017-08-04T12:20:27.263Z,49.50
2017-08-04T12:22:54.764Z,49.10
2017-08-04T12:25:22.973Z,49.60
2017-08-04T12:27:51.385Z,48.90
2017-08-04T12:30:18.804Z,49.20
2017-08-04T12:32:46.237Z,49.30
2017-08-04T12:35:13.653Z,49.50
2017-08-04T12:37:41.065Z,48.80
2017-08-04T12:40:08.501Z,49.00
2017-08-04T12:42:35.918Z,49.40
2017-08-04T12:45:03.338Z,49.50
2017-08-04T12:47:31.538Z,50.00
2017-08-04T12:49:59.021Z,50.00
2017-08-04T12:52:26.455Z,49.40
2017-08-04T12:54:53.884Z,48.90
2017-08-04T12:57:22.097Z,48.80
2017-08-04T12:59:49.516Z,48.80
2017-08-04T13:02:17.712Z,49.10
2017-08-04T13:04:45.204Z,49.00
2017-08-04T13:07:12.617Z,49.10
2017-08-04T13:09:40.037Z,48.20
2017-08-04T13:12:07.482Z,45.80
2017-08-04T13:14:34.980Z,42.20
2017-08-04T13:17:03.169Z,43.00
2017-08-04T13:19:30.596Z,42.30
2017-08-04T13:21:58.785Z,44.10
2017-08-04T13:24:26.212Z,44.00
2017-08-04T13:26:54.454Z,45.70
2017-08-04T13:29:21.877Z,45.60
2017-08-04T13:31:49.353Z,45.80
2017-08-04T13:34:16.747Z,45.60
2017-08-04T13:36:44.188Z,45.40
2017-08-04T13:39:11.677Z,45.80
2017-08-04T13:41:39.898Z,47.20
2017-08-04T13:44:07.329Z,47.10
2017-08-04T13:46:34.760Z,49.10
2017-08-04T13:49:02.953Z,48.40
2017-08-04T13:51:30.437Z,48.90
2017-08-04T13:53:58.561Z,48.10
2017-08-04T13:56:26.012Z,47.40
2017-08-04T13:58:53.424Z,46.70
2017-08-04T14:01:27.937Z,45.90
2017-08-04T14:03:55.369Z,45.60
2017-08-04T14:06:22.794Z,46.70
2017-08-04T14:08:50.246Z,46.00
2017-08-04T14:11:17.680Z,45.20
2017-08-04T14:13:45.112Z,44.90
2017-08-04T14:16:12.539Z,45.90
2017-08-04T14:18:40.742Z,47.60
2017-08-04T14:21:08.240Z,47.60
2017-08-04T14:23:35.657Z,46.10
2017-08-04T14:26:03.160Z,45.90
2017-08-04T14:28:30.601Z,46.30
2017-08-04T14:30:58.001Z,47.30
2017-08-04T14:33:25.525Z,48.00
2017-08-04T14:35:52.950Z,47.20
2017-08-04T14:38:20.515Z,44.80
2017-08-04T14:40:47.937Z,44.70
2017-08-04T14:43:15.385Z,44.90
2017-08-04T14:45:43.578Z,42.30
2017-08-04T14:50:33.409Z,42.10
2017-08-04T14:53:00.861Z,40.30
2017-08-04T14:55:28.325Z,41.50
2017-08-04T14:57:55.730Z,42.00
2017-08-04T15:00:23.149Z,42.70
2017-08-04T15:02:51.347Z,45.60
2017-08-04T15:05:18.763Z,45.90
2017-08-04T15:07:46.197Z,46.00
2017-08-04T15:10:13.642Z,46.90
2017-08-04T15:12:41.052Z,47.90
2017-08-04T15:15:08.513Z,48.80
2017-08-04T15:17:35.941Z,49.10
2017-08-04T15:20:03.380Z,49.30
2017-08-04T15:22:30.811Z,48.60
2017-08-04T15:24:58.236Z,48.20
2017-08-04T15:27:26.422Z,45.80
2017-08-04T15:29:53.856Z,45.70
2017-08-04T15:32:21.300Z,46.10
2017-08-04T15:34:48.852Z,45.40
2017-08-04T15:37:16.315Z,44.50
2017-08-04T15:39:43.769Z,43.70
2017-08-04T15:42:11.238Z,44.90
2017-08-04T15:44:38.655Z,46.30
2017-08-04T15:47:06.145Z,47.80
2017-08-04T15:49:33.572Z,48.70
2017-08-04T15:52:01.021Z,47.20
2017-08-04T15:54:28.505Z,47.50
2017-08-04T15:56:55.933Z,48.90
2017-08-04T15:59:23.374Z,50.00
2017-08-04T16:01:50.790Z,50.30
2017-08-04T16:04:18.997Z,51.60
2017-08-04T16:06:46.418Z,51.60
2017-08-04T16:09:14.674Z,53.10
2017-08-04T16:11:42.080Z,53.10
2017-08-04T16:14:09.505Z,52.90
2017-08-04T16:16:37.686Z,51.30
2017-08-04T16:19:05.909Z,50.10
2017-08-04T16:21:33.320Z,50.10
2017-08-04T16:24:00.834Z,51.10
2017-08-04T16:26:28.269Z,52.40
2017-08-04T16:28:55.687Z,53.40
2017-08-04T16:31:23.889Z,54.80
2017-08-04T16:33:51.325Z,54.80
2017-08-04T16:36:18.744Z,54.90
2017-08-04T16:38:46.165Z,55.40
2017-08-04T16:41:13.594Z,55.20
2017-08-04T16:43:41.033Z,54.40
2017-08-04T16:46:08.496Z,53.10
2017-08-04T16:48:36.033Z,52.20
2017-08-04T16:51:03.443Z,51.60
2017-08-04T16:53:30.925Z,51.80
2017-08-04T16:55:58.328Z,51.40
2017-08-04T16:58:25.759Z,51.10
2017-08-04T17:00:53.265Z,51.40
2017-08-04T17:03:20.677Z,51.40
2017-08-04T17:05:48.117Z,51.70
2017-08-04T17:08:16.345Z,52.60
2017-08-04T17:10:43.762Z,52.40
2017-08-04T17:13:11.182Z,52.90
2017-08-04T17:15:38.635Z,53.20
2017-08-04T17:18:06.052Z,53.70
2017-08-04T17:20:33.511Z,54.10
2017-08-04T17:23:01.020Z,54.40
2017-08-04T17:25:29.272Z,55.10
2017-08-04T17:27:56.672Z,55.00
2017-08-04T17:30:24.149Z,55.10
2017-08-04T17:32:51.601Z,55.20
2017-08-04T17:35:19.017Z,55.10
2017-08-04T17:37:47.200Z,54.20
2017-08-04T17:40:15.396Z,54.40
2017-08-04T17:42:42.834Z,54.40
2017-08-04T17:45:11.012Z,53.10
2017-08-04T17:47:38.449Z,53.10
2017-08-04T17:50:06.657Z,52.60
2017-08-04T17:52:34.078Z,53.00
2017-08-04T17:55:02.316Z,54.50
2017-08-04T17:57:29.746Z,54.50
2017-08-04T17:59:57.251Z,54.30
2017-08-04T18:02:36.560Z,54.50
2017-08-04T18:05:03.976Z,54.60
2017-08-04T18:07:31.461Z,54.60
2017-08-04T18:09:58.861Z,54.10
2017-08-04T18:12:26.399Z,53.60
2017-08-04T18:14:53.836Z,54.10
2017-08-04T18:17:21.284Z,54.20
2017-08-04T18:19:48.722Z,54.50
2017-08-04T18:22:16.146Z,54.70
2017-08-04T18:24:43.580Z,54.70
2017-08-04T18:27:11.018Z,54.80
2017-08-04T18:29:38.499Z,55.10
2017-08-04T18:32:05.927Z,55.40
2017-08-04T18:34:33.366Z,55.50
2017-08-04T18:37:00.856Z,55.60
2017-08-04T18:39:28.275Z,55.80
2017-08-04T18:41:55.722Z,56.00
2017-08-04T18:44:23.141Z,56.10
2017-08-04T18:46:50.648Z,56.40
2017-08-04T18:49:18.057Z,56.50
2017-08-04T18:51:45.482Z,56.60
2017-08-04T18:54:12.905Z,57.00
2017-08-04T18:56:40.343Z,57.10
2017-08-04T18:59:07.760Z,57.20
2017-08-04T19:01:35.215Z,57.40
2017-08-04T19:04:02.661Z,57.60
2017-08-04T19:06:30.884Z,58.20
2017-08-04T19:08:58.310Z,58.20
2017-08-04T19:11:25.910Z,58.40
2017-08-04T19:13:53.317Z,58.60
2017-08-04T19:16:20.729Z,58.90
2017-08-04T19:18:48.222Z,59.60
2017-08-04T19:21:15.657Z,59.30
2017-08-04T19:23:43.871Z,59.70
2017-08-04T19:26:11.294Z,59.70
2017-08-04T19:28:39.497Z,60.30
2017-08-04T19:31:06.937Z,60.20
2017-08-04T19:33:35.121Z,60.80
2017-08-04T19:36:02.552Z,60.60
2017-08-04T19:38:30.780Z,61.40
2017-08-04T19:40:58.205Z,61.40
2017-08-04T19:43:25.649Z,61.70
2017-08-04T19:45:53.073Z,61.90
2017-08-04T19:48:20.562Z,62.00
2017-08-04T19:50:48.149Z,62.20
2017-08-04T19:53:15.585Z,62.40
2017-08-04T19:55:43.014Z,62.60
2017-08-04T19:58:11.222Z,62.90
2017-08-04T20:00:38.643Z,62.70
2017-08-04T20:03:06.836Z,63.10
2017-08-04T20:05:34.257Z,63.00
2017-08-04T20:08:01.673Z,63.10
2017-08-04T20:10:29.122Z,63.30
2017-08-04T20:12:57.304Z,63.40
2017-08-04T20:15:24.754Z,63.40
2017-08-04T20:17:52.169Z,63.70
2017-08-04T20:20:19.601Z,63.50
2017-08-04T20:22:47.056Z,63.80
2017-08-04T20:25:14.481Z,63.90
2017-08-04T20:27:41.941Z,63.90
2017-08-04T20:30:09.356Z,64.10
2017-08-04T20:32:37.541Z,63.70
2017-08-04T20:35:04.999Z,63.60
2017-08-04T20:37:33.226Z,64.40
2017-08-04T20:40:00.652Z,63.50
2017-08-04T20:42:28.063Z,63.50
2017-08-04T20:44:55.488Z,63.40
2017-08-04T20:47:22.924Z,63.70
2017-08-04T20:52:23.077Z,63.40
2017-08-04T20:54:50.503Z,63.60
2017-08-04T20:57:17.960Z,63.70
2017-08-04T20:59:45.376Z,64.00
2017-08-04T21:02:13.591Z,63.40
2017-08-04T21:04:41.041Z,63.40
2017-08-04T21:07:08.476Z,63.30
2017-08-04T21:09:36.652Z,63.30
2017-08-04T21:12:04.100Z,63.30
2017-08-04T21:14:32.302Z,63.30
2017-08-04T21:16:59.728Z,63.20
2017-08-04T21:19:27.971Z,63.90
2017-08-04T21:21:55.390Z,63.80
2017-08-04T21:24:22.819Z,63.90
2017-08-04T21:26:51.022Z,63.30
2017-08-04T21:29:18.456Z,63.30
2017-08-04T21:31:45.900Z,63.60
2017-08-04T21:34:14.121Z,63.50
2017-08-04T21:36:41.612Z,63.50
2017-08-04T21:39:09.054Z,63.70
2017-08-04T21:41:36.482Z,64.00
2017-08-04T21:44:03.902Z,64.70
2017-08-04T21:46:32.093Z,66.10
2017-08-04T21:48:59.516Z,66.00
2017-08-04T21:51:27.243Z,66.70
2017-08-04T21:53:54.684Z,67.20
2017-08-04T21:56:22.156Z,67.70
2017-08-04T21:58:49.601Z,67.70
2017-08-04T22:01:17.032Z,68.40
2017-08-04T22:03:44.454Z,68.70
2017-08-04T22:06:11.885Z,69.00
2017-08-04T22:08:39.341Z,69.10
2017-08-04T22:11:06.810Z,68.90
2017-08-04T22:13:34.333Z,69.10
2017-08-04T22:16:01.766Z,68.70
2017-08-04T22:18:29.179Z,68.70
2017-08-04T22:20:56.597Z,68.90
2017-08-04T22:23:24.028Z,69.60
2017-08-04T22:25:51.449Z,70.00
2017-08-04T22:28:18.873Z,70.20
2017-08-04T22:30:47.062Z,70.90
2017-08-04T22:33:14.506Z,70.90
2017-08-04T22:35:41.930Z,71.50
2017-08-04T22:38:09.403Z,70.70
2017-08-04T22:40:36.812Z,70.40
2017-08-04T22:43:04.240Z,69.90
2017-08-04T22:45:32.427Z,69.20
2017-08-04T22:47:59.864Z,69.10
2017-08-04T22:50:28.052Z,68.30
2017-08-04T22:52:55.543Z,68.30
2017-08-04T22:55:22.972Z,68.20
2017-08-04T22:57:50.418Z,68.00
2017-08-04T23:00:17.938Z,68.00
2017-08-04T23:02:45.366Z,67.80
2017-08-04T23:05:12.837Z,67.20
2017-08-04T23:07:40.281Z,67.40
2017-08-04T23:10:07.725Z,67.40
2017-08-04T23:12:35.159Z,67.50
2017-08-04T23:15:03.342Z,67.80
2017-08-04T23:17:30.768Z,67.70
2017-08-04T23:19:58.989Z,68.00
2017-08-04T23:22:31.317Z,68.00
2017-08-04T23:24:59.522Z,69.80
2017-08-04T23:27:26.941Z,69.10
2017-08-04T23:29:55.157Z,69.40
2017-08-04T23:32:22.614Z,69.30
2017-08-04T23:34:50.043Z,69.40
2017-08-04T23:37:17.461Z,69.50
2017-08-04T23:39:44.886Z,69.90
2017-08-04T23:42:12.349Z,71.00
2017-08-04T23:44:39.786Z,71.00
2017-08-04T23:47:07.205Z,71.40
2017-08-04T23:49:35.441Z,72.20
2017-08-04T23:52:02.907Z,71.30
2017-08-04T23:54:30.337Z,71.50
2017-08-04T23:56:57.749Z,72.00
2017-08-04T23:59:25.186Z,72.00
